createdAt,value
2018-02-25T00:00:28.606Z,9.52
2018-02-25T00:02:56.281Z,16.23
2018-02-25T00:05:23.908Z,11.95
2018-02-25T00:07:52.249Z,11.23
2018-02-25T00:10:19.885Z,9.38
2018-02-25T00:12:47.532Z,15.77
2018-02-25T00:15:15.186Z,10.82
2018-02-25T00:17:42.836Z,16.60
2018-02-25T00:20:10.466Z,15.18
2018-02-25T00:22:38.118Z,15.90
2018-02-25T00:25:05.713Z,10.48
2018-02-25T00:27:34.124Z,15.60
2018-02-25T00:30:02.482Z,8.98
2018-02-25T00:32:30.894Z,11.98
2018-02-25T00:34:58.502Z,12.13
2018-02-25T00:37:26.145Z,16.40
2018-02-25T00:39:53.765Z,9.05
2018-02-25T00:42:21.407Z,19.90
2018-02-25T00:44:49.086Z,10.02
2018-02-25T00:47:16.682Z,16.62
2018-02-25T00:49:44.313Z,17.00
2018-02-25T00:52:11.949Z,10.38
2018-02-25T00:54:40.362Z,18.70
2018-02-25T00:57:08.023Z,12.48
2018-02-25T00:59:35.623Z,21.02
2018-02-25T01:02:04.281Z,12.27
2018-02-25T01:04:31.921Z,16.67
2018-02-25T01:06:59.596Z,11.25
2018-02-25T01:09:27.221Z,13.45
2018-02-25T01:11:54.908Z,13.20
2018-02-25T01:14:23.494Z,23.15
2018-02-25T01:16:51.198Z,13.15
2018-02-25T01:19:18.890Z,16.33
2018-02-25T01:21:46.556Z,15.68
2018-02-25T01:24:14.954Z,17.37
2018-02-25T01:26:42.575Z,16.73
2018-02-25T01:29:10.218Z,17.75
2018-02-25T01:31:37.900Z,13.02
2018-02-25T01:34:06.326Z,14.63
2018-02-25T01:36:33.898Z,11.60
2018-02-25T01:39:01.538Z,14.95
2018-02-25T01:41:29.136Z,17.52
2018-02-25T01:43:56.723Z,15.82
2018-02-25T01:46:24.347Z,24.30
2018-02-25T01:48:51.961Z,18.50
2018-02-25T01:51:20.831Z,15.00
2018-02-25T01:53:48.724Z,17.98
2018-02-25T01:56:17.118Z,15.82
2018-02-25T01:58:45.536Z,20.95
2018-02-25T02:01:13.205Z,17.17
2018-02-25T02:03:40.863Z,13.60
2018-02-25T02:06:08.635Z,28.58
2018-02-25T02:08:36.263Z,21.27
2018-02-25T02:11:05.996Z,16.45
2018-02-25T02:13:35.974Z,12.43
2018-02-25T02:16:05.771Z,15.90
2018-02-25T02:18:35.675Z,13.62
2018-02-25T02:21:05.813Z,16.17
2018-02-25T02:23:35.744Z,29.25
2018-02-25T02:26:05.709Z,15.95
2018-02-25T02:28:35.666Z,13.27
2018-02-25T02:31:03.335Z,22.75
2018-02-25T02:33:31.702Z,18.05
2018-02-25T02:36:00.153Z,21.87
2018-02-25T02:38:27.823Z,18.00
2018-02-25T02:40:55.686Z,17.37
2018-02-25T02:43:23.336Z,19.48
2018-02-25T02:45:53.108Z,18.55
2018-02-25T02:48:20.855Z,23.25
2018-02-25T02:50:48.517Z,25.65
2018-02-25T02:53:16.282Z,19.90
2018-02-25T02:55:44.710Z,26.73
2018-02-25T02:58:12.322Z,20.15
2018-02-25T03:00:40.700Z,23.17
2018-02-25T03:03:09.125Z,39.55
2018-02-25T03:05:36.828Z,20.02
2018-02-25T03:08:04.458Z,30.37
2018-02-25T03:10:32.078Z,16.48
2018-02-25T03:12:59.727Z,24.15
2018-02-25T03:15:27.364Z,15.75
2018-02-25T03:17:55.046Z,19.92
2018-02-25T03:20:23.453Z,20.45
2018-02-25T03:22:52.510Z,22.25
2018-02-25T03:25:20.286Z,24.63
2018-02-25T03:27:47.915Z,19.90
2018-02-25T03:30:15.602Z,26.58
2018-02-25T03:32:43.234Z,29.73
2018-02-25T03:35:12.907Z,23.25
2018-02-25T03:37:40.546Z,35.90
2018-02-25T03:40:08.973Z,22.25
2018-02-25T03:42:36.639Z,21.42
2018-02-25T03:45:04.253Z,18.27
2018-02-25T03:47:33.159Z,25.42
2018-02-25T03:50:01.648Z,20.88
2018-02-25T03:52:29.343Z,27.30
2018-02-25T03:54:56.923Z,19.67
2018-02-25T03:57:24.559Z,24.23
2018-02-25T03:59:52.196Z,23.73
2018-02-25T04:02:19.795Z,25.65
2018-02-25T04:04:47.443Z,27.70
2018-02-25T04:07:16.971Z,40.70
2018-02-25T04:09:44.622Z,31.67
2018-02-25T04:12:12.254Z,25.42
2018-02-25T04:14:39.974Z,20.80
2018-02-25T04:17:07.584Z,24.17
2018-02-25T04:19:35.178Z,26.33
2018-02-25T04:22:02.822Z,21.02
2018-02-25T04:24:30.576Z,29.45
2018-02-25T04:26:58.185Z,29.35
2018-02-25T04:29:26.633Z,27.73
2018-02-25T04:31:54.231Z,28.52
2018-02-25T04:34:24.866Z,36.40
2018-02-25T04:36:52.699Z,33.83
2018-02-25T04:39:20.291Z,24.83
2018-02-25T04:41:48.714Z,28.70
2018-02-25T04:44:16.332Z,30.02
2018-02-25T04:46:44.752Z,19.27
2018-02-25T04:49:15.743Z,35.95
2018-02-25T04:51:43.382Z,22.37
2018-02-25T04:54:10.998Z,22.73
2018-02-25T04:56:39.408Z,41.37
2018-02-25T04:59:07.046Z,22.20
2018-02-25T05:01:34.649Z,32.72
2018-02-25T05:04:02.314Z,47.95
2018-02-25T05:06:29.938Z,34.28
2018-02-25T05:08:58.451Z,30.65
2018-02-25T05:11:26.136Z,26.20
2018-02-25T05:13:53.779Z,33.90
2018-02-25T05:16:21.400Z,33.53
2018-02-25T05:18:49.009Z,30.58
2018-02-25T05:21:16.665Z,42.22
2018-02-25T05:23:47.398Z,33.17
2018-02-25T05:26:15.026Z,26.70
2018-02-25T05:28:42.688Z,46.20
2018-02-25T05:31:10.290Z,35.80
2018-02-25T05:33:38.609Z,35.10
2018-02-25T05:36:06.329Z,30.58
2018-02-25T05:38:34.085Z,26.25
2018-02-25T05:41:01.976Z,28.45
2018-02-25T05:43:29.707Z,28.75
2018-02-25T05:45:57.318Z,29.73
2018-02-25T05:48:25.010Z,37.67
2018-02-25T05:50:52.936Z,32.65
2018-02-25T05:53:20.747Z,25.60
2018-02-25T05:55:48.564Z,24.30
2018-02-25T05:58:16.334Z,32.03
2018-02-25T06:00:44.005Z,31.15
2018-02-25T06:03:12.501Z,28.67
2018-02-25T06:05:40.553Z,24.67
2018-02-25T06:08:08.464Z,37.05
2018-02-25T06:10:36.107Z,26.05
2018-02-25T06:13:04.545Z,33.80
2018-02-25T06:15:32.274Z,33.67
2018-02-25T06:18:00.249Z,37.10
2018-02-25T06:20:27.883Z,29.67
2018-02-25T06:22:56.264Z,33.08
2018-02-25T06:25:24.715Z,31.52
2018-02-25T06:27:52.307Z,31.60
2018-02-25T06:30:20.195Z,28.10
2018-02-25T06:32:47.820Z,26.70
2018-02-25T06:35:16.232Z,30.25
2018-02-25T06:37:43.889Z,26.70
2018-02-25T06:40:11.614Z,32.33
2018-02-25T06:42:40.702Z,34.80
2018-02-25T06:45:09.921Z,32.17
2018-02-25T06:47:38.563Z,30.30
2018-02-25T06:50:06.266Z,30.80
2018-02-25T06:52:33.883Z,25.77
2018-02-25T06:55:01.527Z,30.37
2018-02-25T06:57:29.180Z,30.60
2018-02-25T06:59:56.812Z,26.67
2018-02-25T07:02:24.471Z,41.78
2018-02-25T07:04:53.870Z,27.98
2018-02-25T07:07:21.712Z,52.70
2018-02-25T07:09:49.313Z,29.65
2018-02-25T07:12:18.446Z,33.92
2018-02-25T07:14:51.657Z,31.33
2018-02-25T07:17:19.512Z,32.88
2018-02-25T07:19:47.272Z,35.65
2018-02-25T07:22:19.156Z,20.60
2018-02-25T07:24:46.988Z,26.55
2018-02-25T07:27:15.164Z,32.55
2018-02-25T07:29:43.135Z,31.10
2018-02-25T07:32:12.287Z,36.42
2018-02-25T07:34:40.222Z,27.37
2018-02-25T07:37:08.467Z,34.78
2018-02-25T07:39:36.427Z,33.17
2018-02-25T07:42:09.237Z,36.17
2018-02-25T07:44:41.263Z,24.73
2018-02-25T07:47:09.149Z,34.50
2018-02-25T07:49:38.055Z,31.40
2018-02-25T07:52:06.219Z,28.20
2018-02-25T07:54:33.925Z,21.77
2018-02-25T07:57:04.634Z,34.22
2018-02-25T07:59:32.320Z,30.58
2018-02-25T08:01:59.947Z,36.10
2018-02-25T08:04:28.334Z,30.23
2018-02-25T08:06:55.942Z,27.23
2018-02-25T08:09:23.764Z,34.00
2018-02-25T08:11:51.790Z,26.87
2018-02-25T08:14:19.425Z,28.80
2018-02-25T08:16:47.094Z,27.27
2018-02-25T08:19:14.733Z,26.95
2018-02-25T08:21:42.382Z,26.62
2018-02-25T08:24:13.959Z,29.52
2018-02-25T08:26:41.614Z,31.00
2018-02-25T08:29:09.220Z,28.15
2018-02-25T08:31:37.926Z,21.27
2018-02-25T08:34:10.387Z,22.33
2018-02-25T08:36:38.824Z,29.08
2018-02-25T08:39:06.502Z,34.17
2018-02-25T08:41:34.467Z,26.05
2018-02-25T08:44:02.354Z,29.77
2018-02-25T08:46:30.103Z,34.95
2018-02-25T08:48:58.114Z,20.50
2018-02-25T08:51:25.791Z,24.00
2018-02-25T08:53:55.137Z,27.70
2018-02-25T08:56:22.824Z,22.23
2018-02-25T08:58:50.472Z,30.25
2018-02-25T09:01:18.307Z,22.60
2018-02-25T09:03:45.983Z,25.48
2018-02-25T09:06:13.584Z,34.20
2018-02-25T09:08:41.982Z,30.17
2018-02-25T09:11:09.642Z,30.55
2018-02-25T09:13:37.274Z,33.30
2018-02-25T09:16:05.755Z,27.92
2018-02-25T09:18:37.538Z,21.33
2018-02-25T09:21:05.185Z,21.85
2018-02-25T09:23:33.655Z,23.00
2018-02-25T09:26:01.285Z,24.80
2018-02-25T09:28:32.004Z,22.95
2018-02-25T09:30:59.625Z,25.85
2018-02-25T09:33:28.476Z,29.70
2018-02-25T09:35:56.257Z,24.90
2018-02-25T09:38:23.834Z,18.48
2018-02-25T09:40:52.551Z,23.23
2018-02-25T09:43:20.999Z,19.20
2018-02-25T09:45:54.918Z,21.02
2018-02-25T09:48:22.507Z,19.67
2018-02-25T09:50:50.356Z,18.17
2018-02-25T09:53:22.246Z,18.42
2018-02-25T09:55:49.856Z,18.37
2018-02-25T09:58:17.604Z,23.12
2018-02-25T10:00:49.215Z,21.05
2018-02-25T10:03:16.845Z,22.62
2018-02-25T10:05:48.678Z,23.10
2018-02-25T10:08:16.282Z,20.08
2018-02-25T10:10:47.838Z,21.58
2018-02-25T10:13:20.890Z,21.90
2018-02-25T10:15:48.610Z,17.87
2018-02-25T10:18:17.886Z,20.83
2018-02-25T10:20:46.964Z,15.70
2018-02-25T10:23:14.775Z,18.37
2018-02-25T10:25:42.386Z,17.83
2018-02-25T10:28:10.020Z,22.55
2018-02-25T10:30:37.655Z,18.58
2018-02-25T10:33:05.306Z,22.73
2018-02-25T10:35:32.953Z,16.17
2018-02-25T10:38:02.312Z,18.87
2018-02-25T10:40:30.430Z,18.55
2018-02-25T10:42:58.073Z,17.02
2018-02-25T10:45:26.091Z,13.95
2018-02-25T10:47:54.155Z,17.45
2018-02-25T10:50:25.286Z,13.57
2018-02-25T10:52:53.944Z,22.58
2018-02-25T10:55:21.578Z,17.70
2018-02-25T10:57:50.246Z,20.35
2018-02-25T11:00:23.669Z,18.12
2018-02-25T11:02:51.293Z,18.48
2018-02-25T11:05:22.216Z,21.30
2018-02-25T11:07:56.347Z,21.10
2018-02-25T11:10:26.143Z,17.30
2018-02-25T11:13:01.354Z,18.10
2018-02-25T11:15:36.240Z,20.58
2018-02-25T11:18:10.909Z,20.20
2018-02-25T11:23:21.154Z,18.92
2018-02-25T11:25:53.440Z,23.65
2018-02-25T11:28:23.042Z,16.73
2018-02-25T11:30:54.862Z,18.80
2018-02-25T11:33:23.881Z,20.60
2018-02-25T11:35:53.121Z,29.33
2018-02-25T11:38:20.748Z,17.05
2018-02-25T11:40:48.374Z,22.90
2018-02-25T11:43:16.072Z,18.77
2018-02-25T11:45:43.795Z,17.17
2018-02-25T11:48:12.211Z,20.35
2018-02-25T11:50:41.103Z,15.50
2018-02-25T11:53:10.073Z,20.12
2018-02-25T11:55:38.687Z,16.87
2018-02-25T11:58:08.461Z,16.73
2018-02-25T12:00:36.134Z,19.10
2018-02-25T12:03:05.000Z,16.37
2018-02-25T12:05:35.899Z,13.85
2018-02-25T12:08:04.864Z,13.85
2018-02-25T12:10:33.893Z,15.35
2018-02-25T12:13:06.595Z,16.15
2018-02-25T12:15:36.907Z,14.82
2018-02-25T12:18:04.573Z,16.30
2018-02-25T12:20:36.605Z,12.10
2018-02-25T12:23:05.871Z,14.73
2018-02-25T12:25:34.283Z,11.93
2018-02-25T12:28:05.898Z,20.80
2018-02-25T12:30:35.504Z,15.27
2018-02-25T12:33:06.141Z,12.65
2018-02-25T12:35:36.438Z,16.35
2018-02-25T12:38:07.437Z,13.10
2018-02-25T12:40:36.303Z,12.60
2018-02-25T12:43:07.750Z,14.75
2018-02-25T12:45:35.557Z,14.48
2018-02-25T12:48:03.907Z,13.67
2018-02-25T12:50:33.620Z,14.30
2018-02-25T12:53:02.787Z,13.45
2018-02-25T12:55:37.384Z,16.45
2018-02-25T12:58:05.274Z,14.68
2018-02-25T13:00:33.933Z,11.93
2018-02-25T13:03:05.053Z,13.23
2018-02-25T13:05:32.695Z,16.77
2018-02-25T13:08:01.084Z,11.60
2018-02-25T13:10:29.187Z,15.52
2018-02-25T13:12:59.929Z,12.13
2018-02-25T13:15:28.154Z,13.60
2018-02-25T13:17:55.842Z,12.32
2018-02-25T13:20:25.511Z,15.90
2018-02-25T13:22:54.351Z,15.73
2018-02-25T13:25:22.218Z,15.35
2018-02-25T13:27:51.377Z,13.48
2018-02-25T13:30:19.441Z,12.02
2018-02-25T13:32:49.206Z,14.57
2018-02-25T13:35:16.818Z,11.85
2018-02-25T13:37:45.322Z,16.30
2018-02-25T13:40:15.166Z,13.38
2018-02-25T13:42:42.843Z,14.27
2018-02-25T13:45:10.888Z,13.57
2018-02-25T13:47:38.497Z,15.40
2018-02-25T13:50:07.553Z,15.20
2018-02-25T13:52:35.192Z,13.52
2018-02-25T13:55:02.805Z,12.00
2018-02-25T13:57:32.196Z,9.63
2018-02-25T14:00:01.941Z,10.18
2018-02-25T14:02:30.332Z,22.20
2018-02-25T14:04:57.941Z,12.90
2018-02-25T14:07:25.734Z,12.68
2018-02-25T14:09:53.440Z,10.32
2018-02-25T14:12:21.226Z,12.60
2018-02-25T14:14:50.652Z,9.70
2018-02-25T14:17:18.256Z,10.45
2018-02-25T14:19:46.768Z,10.30
2018-02-25T14:22:14.378Z,11.95
2018-02-25T14:24:43.043Z,10.65
2018-02-25T14:27:11.440Z,13.68
2018-02-25T14:29:39.858Z,12.45
2018-02-25T14:32:07.982Z,11.32
2018-02-25T14:34:36.288Z,11.95
2018-02-25T14:37:03.943Z,10.02
2018-02-25T14:39:31.558Z,10.30
2018-02-25T14:41:59.197Z,11.32
2018-02-25T14:44:29.549Z,9.88
2018-02-25T14:46:57.270Z,12.50
2018-02-25T14:49:24.980Z,9.98
2018-02-25T14:51:52.619Z,13.85
2018-02-25T14:54:20.244Z,17.77
2018-02-25T14:56:48.075Z,11.55
2018-02-25T14:59:15.717Z,15.80
2018-02-25T15:01:43.394Z,15.40
2018-02-25T15:04:10.982Z,12.05
2018-02-25T15:06:38.642Z,9.15
2018-02-25T15:09:09.776Z,14.10
2018-02-25T15:11:37.438Z,15.07
2018-02-25T15:14:05.054Z,13.80
2018-02-25T15:16:32.681Z,13.77
2018-02-25T15:19:01.114Z,17.83
2018-02-25T15:21:28.753Z,11.95
2018-02-25T15:23:56.418Z,12.60
2018-02-25T15:26:24.072Z,9.60
2018-02-25T15:28:51.905Z,10.40
2018-02-25T15:31:19.523Z,12.65
2018-02-25T15:33:47.185Z,9.88
2018-02-25T15:36:15.150Z,10.52
2018-02-25T15:38:43.525Z,14.80
2018-02-25T15:41:13.320Z,13.57
2018-02-25T15:43:41.008Z,11.80
2018-02-25T15:46:08.633Z,17.08
2018-02-25T15:48:36.998Z,15.35
2018-02-25T15:51:05.408Z,12.98
2018-02-25T15:53:33.041Z,15.55
2018-02-25T15:56:00.635Z,9.90
2018-02-25T15:58:28.253Z,22.45
2018-02-25T16:00:55.929Z,13.23
2018-02-25T16:03:23.546Z,7.10
2018-02-25T16:05:51.175Z,12.15
2018-02-25T16:08:18.821Z,12.00
2018-02-25T16:10:47.203Z,11.00
2018-02-25T16:13:14.875Z,22.65
2018-02-25T16:15:42.619Z,13.15
2018-02-25T16:18:10.242Z,15.73
2018-02-25T16:20:37.878Z,13.18
2018-02-25T16:23:05.516Z,13.52
2018-02-25T16:25:33.886Z,17.52
2018-02-25T16:28:02.316Z,16.05
2018-02-25T16:30:30.858Z,11.73
2018-02-25T16:32:58.494Z,13.48
2018-02-25T16:35:26.895Z,18.33
2018-02-25T16:37:54.525Z,16.37
2018-02-25T16:40:22.167Z,20.88
2018-02-25T16:42:49.810Z,15.98
2018-02-25T16:45:17.422Z,13.05
2018-02-25T16:47:45.069Z,11.88
2018-02-25T16:50:12.686Z,13.88
2018-02-25T16:52:40.278Z,12.23
2018-02-25T16:55:07.911Z,13.50
2018-02-25T16:57:35.547Z,11.95
2018-02-25T17:00:03.236Z,16.17
2018-02-25T17:02:30.851Z,12.50
2018-02-25T17:04:58.505Z,16.80
2018-02-25T17:07:26.154Z,16.40
2018-02-25T17:09:53.770Z,19.10
2018-02-25T17:12:21.478Z,13.07
2018-02-25T17:14:49.087Z,14.10
2018-02-25T17:17:16.767Z,16.52
2018-02-25T17:19:44.385Z,14.70
2018-02-25T17:22:12.004Z,15.43
2018-02-25T17:24:39.593Z,19.55
2018-02-25T17:27:10.250Z,15.05
2018-02-25T17:29:37.841Z,15.70
2018-02-25T17:32:05.498Z,18.58
2018-02-25T17:34:33.110Z,17.48
2018-02-25T17:37:01.662Z,18.17
2018-02-25T17:39:29.369Z,19.70
2018-02-25T17:41:59.814Z,29.75
2018-02-25T17:44:27.577Z,12.80
2018-02-25T17:46:55.222Z,21.20
2018-02-25T17:49:22.838Z,15.73
2018-02-25T17:51:50.489Z,13.52
2018-02-25T17:54:18.076Z,15.88
2018-02-25T17:56:45.730Z,15.23
2018-02-25T17:59:13.707Z,19.80
2018-02-25T18:01:41.490Z,13.48
2018-02-25T18:04:09.111Z,14.02
2018-02-25T18:06:36.793Z,11.48
2018-02-25T18:09:04.407Z,14.07
2018-02-25T18:11:32.079Z,13.62
2018-02-25T18:14:00.424Z,15.70
2018-02-25T18:16:28.093Z,19.02
2018-02-25T18:18:55.745Z,13.48
2018-02-25T18:21:23.385Z,14.30
2018-02-25T18:23:51.049Z,16.10
2018-02-25T18:26:18.671Z,15.38
2018-02-25T18:28:46.334Z,13.07
2018-02-25T18:31:14.673Z,14.52
2018-02-25T18:33:42.280Z,12.35
2018-02-25T18:36:09.930Z,17.48
2018-02-25T18:38:37.558Z,10.13
2018-02-25T18:41:05.156Z,10.93
2018-02-25T18:43:32.814Z,14.38
2018-02-25T18:46:00.490Z,14.23
2018-02-25T18:48:28.132Z,11.93
2018-02-25T18:50:55.779Z,9.80
2018-02-25T18:53:23.430Z,7.35
2018-02-25T18:55:51.863Z,13.65
2018-02-25T18:58:19.589Z,14.07
2018-02-25T19:00:49.520Z,13.62
2018-02-25T19:03:17.125Z,16.02
2018-02-25T19:05:44.742Z,12.70
2018-02-25T19:08:13.168Z,12.80
2018-02-25T19:10:40.922Z,11.75
2018-02-25T19:13:08.681Z,11.68
2018-02-25T19:15:36.352Z,12.75
2018-02-25T19:18:03.956Z,9.50
2018-02-25T19:20:31.580Z,15.02
2018-02-25T19:22:59.226Z,9.77
2018-02-25T19:25:26.840Z,14.32
2018-02-25T19:27:54.487Z,17.85
2018-02-25T19:30:22.115Z,11.80
2018-02-25T19:32:50.647Z,7.62
2018-02-25T19:35:18.250Z,10.10
2018-02-25T19:37:51.410Z,9.85
2018-02-25T19:40:25.492Z,13.32
2018-02-25T19:42:53.104Z,12.65
2018-02-25T19:45:20.673Z,15.15
2018-02-25T19:47:48.329Z,11.00
2018-02-25T19:50:15.953Z,16.35
2018-02-25T19:52:43.556Z,10.38
2018-02-25T19:55:11.208Z,12.98
2018-02-25T19:57:38.813Z,11.27
2018-02-25T20:00:06.409Z,12.70
2018-02-25T20:02:34.794Z,13.23
2018-02-25T20:05:03.151Z,12.25
2018-02-25T20:07:30.748Z,12.05
2018-02-25T20:09:58.409Z,21.05
2018-02-25T20:12:26.801Z,12.60
2018-02-25T20:14:54.434Z,22.98
2018-02-25T20:17:22.025Z,12.70
2018-02-25T20:19:49.740Z,14.13
2018-02-25T20:22:17.417Z,12.75
2018-02-25T20:24:45.796Z,11.98
2018-02-25T20:27:14.230Z,23.42
2018-02-25T20:29:41.834Z,10.43
2018-02-25T20:32:09.461Z,11.88
2018-02-25T20:34:37.047Z,11.65
2018-02-25T20:37:05.087Z,14.73
2018-02-25T20:39:32.720Z,13.65
2018-02-25T20:42:00.395Z,15.23
2018-02-25T20:44:28.071Z,12.60
2018-02-25T20:46:55.706Z,10.23
2018-02-25T20:49:23.370Z,10.45
2018-02-25T20:51:50.996Z,22.98
2018-02-25T20:54:19.389Z,14.80
2018-02-25T20:56:47.047Z,12.88
2018-02-25T20:59:15.423Z,10.80
2018-02-25T21:01:46.596Z,11.88
2018-02-25T21:04:14.241Z,11.88
2018-02-25T21:06:41.955Z,10.90
2018-02-25T21:09:09.636Z,11.68
2018-02-25T21:11:37.265Z,22.05
2018-02-25T21:14:04.969Z,12.15
2018-02-25T21:16:32.646Z,10.88
2018-02-25T21:19:00.263Z,12.63
2018-02-25T21:21:27.916Z,11.63
2018-02-25T21:23:55.558Z,13.20
2018-02-25T21:26:23.163Z,11.52
2018-02-25T21:28:50.817Z,11.25
2018-02-25T21:31:18.503Z,13.13
2018-02-25T21:33:46.149Z,14.15
2018-02-25T21:39:04.478Z,11.10
2018-02-25T21:41:32.141Z,18.58
2018-02-25T21:44:00.771Z,13.43
2018-02-25T21:46:28.456Z,14.45
2018-02-25T21:48:56.859Z,13.23
2018-02-25T21:51:24.500Z,9.15
2018-02-25T21:53:53.014Z,12.77
2018-02-25T21:56:26.204Z,8.13
2018-02-25T21:58:59.562Z,15.20
2018-02-25T22:01:33.685Z,6.90
2018-02-25T22:04:02.082Z,12.57
2018-02-25T22:06:29.671Z,27.37
2018-02-25T22:08:57.276Z,9.45
2018-02-25T22:11:25.707Z,16.42
2018-02-25T22:13:53.316Z,7.60
2018-02-25T22:16:21.728Z,14.23
2018-02-25T22:18:49.338Z,5.07
2018-02-25T22:21:16.958Z,9.48
2018-02-25T22:23:44.698Z,11.38
2018-02-25T22:26:23.012Z,9.18
2018-02-25T22:28:51.421Z,8.45
2018-02-25T22:31:18.997Z,8.93
2018-02-25T22:33:46.645Z,13.23
2018-02-25T22:36:15.132Z,14.80
2018-02-25T22:38:42.735Z,10.95
2018-02-25T22:41:10.367Z,15.65
2018-02-25T22:43:38.134Z,23.23
2018-02-25T22:46:05.901Z,14.63
2018-02-25T22:48:33.531Z,9.07
2018-02-25T22:51:01.180Z,11.18
2018-02-25T22:53:28.955Z,7.72
2018-02-25T22:55:56.588Z,10.45
2018-02-25T22:58:24.236Z,12.63
2018-02-25T23:00:51.874Z,5.75
2018-02-25T23:03:19.537Z,10.85
2018-02-25T23:05:47.155Z,8.23
2018-02-25T23:08:14.787Z,9.05
2018-02-25T23:10:42.384Z,9.77
2018-02-25T23:13:10.044Z,11.35
2018-02-25T23:15:37.684Z,16.83
2018-02-25T23:18:06.270Z,12.10
2018-02-25T23:20:34.691Z,11.40
2018-02-25T23:23:02.384Z,12.98
2018-02-25T23:25:29.991Z,11.45
2018-02-25T23:27:57.662Z,12.95
2018-02-25T23:30:25.267Z,11.52
2018-02-25T23:32:52.940Z,10.88
2018-02-25T23:35:20.563Z,11.95
2018-02-25T23:37:48.186Z,10.80
2018-02-25T23:40:16.597Z,8.27
2018-02-25T23:42:44.245Z,14.18
2018-02-25T23:45:11.845Z,16.30
2018-02-25T23:47:39.510Z,8.98
2018-02-25T23:50:07.086Z,8.52
2018-02-25T23:52:34.761Z,8.90
2018-02-25T23:55:03.290Z,8.32
2018-02-25T23:57:30.950Z,12.65
2018-02-25T23:59:58.551Z,7.97
